< < Back
Terminal Aerodrome Forecast


Current Version              Previous Versions:   1  2  3  4  5  6  7  8  9  

Terminal Aerodrome Forecast

814
FTUS42 KMLB 230200 AAA
TAFMCO
TAF AMD
KMCO 230257Z 2303/2324 03009KT P6SM SCT250
     FM230600 01006KT P6SM SCT250
     FM231400 04010KT P6SM SCT250=

Latest METAR

892
SAUS70 KWBC 230400 RRF
MTRMCO
METAR KMCO 230353Z 03008KT 10SM SCT250 19/16 A3000 RMK AO2 SLP158
T01940156


USA.gov is the U.S. government's official web portal to all federal, state and local government web resources and services.